sensor_id;sensor_type;location;lat;lon;timestamp;P1;durP1;ratioP1;P2;durP2;ratioP2
2338;SDS011;1180;51.438;6.978;2022-09-29T00:00:46;10.90;;;8.33;;
2338;SDS011;1180;51.438;6.978;2022-09-29T00:03:13;9.60;;;8.50;;
2338;SDS011;1180;51.438;6.978;2022-09-29T00:05:38;9.53;;;8.63;;
2338;SDS011;1180;51.438;6.978;2022-09-29T00:08:04;8.47;;;7.50;;
2338;SDS011;1180;51.438;6.978;2022-09-29T00:10:29;10.47;;;9.03;;
2338;SDS011;1180;51.438;6.978;2022-09-29T00:12:55;9.80;;;8.60;;
2338;SDS011;1180;51.438;6.978;2022-09-29T00:15:20;9.50;;;8.60;;
2338;SDS011;1180;51.438;6.978;2022-09-29T00:17:45;11.80;;;9.67;;
2338;SDS011;1180;51.438;6.978;2022-09-29T00:20:11;9.40;;;8.23;;
2338;SDS011;1180;51.438;6.978;2022-09-29T00:22:36;8.80;;;8.00;;
2338;SDS011;1180;51.438;6.978;2022-09-29T00:25:02;9.37;;;8.47;;
2338;SDS011;1180;51.438;6.978;2022-09-29T00:27:27;9.23;;;8.43;;
2338;SDS011;1180;51.438;6.978;2022-09-29T00:29:53;10.13;;;8.30;;
2338;SDS011;1180;51.438;6.978;2022-09-29T00:32:18;10.67;;;8.30;;
2338;SDS011;1180;51.438;6.978;2022-09-29T00:34:43;8.73;;;7.73;;
2338;SDS011;1180;51.438;6.978;2022-09-29T00:37:08;9.50;;;8.60;;
2338;SDS011;1180;51.438;6.978;2022-09-29T00:39:34;8.90;;;8.00;;
2338;SDS011;1180;51.438;6.978;2022-09-29T00:41:59;8.93;;;8.00;;
2338;SDS011;1180;51.438;6.978;2022-09-29T00:47:28;9.53;;;8.17;;
2338;SDS011;1180;51.438;6.978;2022-09-29T00:50:02;11.70;;;9.20;;
2338;SDS011;1180;51.438;6.978;2022-09-29T00:52:39;9.10;;;7.50;;
2338;SDS011;1180;51.438;6.978;2022-09-29T00:57:59;9.30;;;8.23;;
2338;SDS011;1180;51.438;6.978;2022-09-29T01:00:29;9.93;;;8.93;;
2338;SDS011;1180;51.438;6.978;2022-09-29T01:03:03;11.77;;;9.30;;
2338;SDS011;1180;51.438;6.978;2022-09-29T01:05:36;12.17;;;8.40;;
2338;SDS011;1180;51.438;6.978;2022-09-29T01:08:09;9.30;;;8.40;;
2338;SDS011;1180;51.438;6.978;2022-09-29T01:10:40;9.60;;;8.53;;
2338;SDS011;1180;51.438;6.978;2022-09-29T01:13:07;10.13;;;9.13;;
2338;SDS011;1180;51.438;6.978;2022-09-29T01:15:33;11.70;;;9.13;;
2338;SDS011;1180;51.438;6.978;2022-09-29T01:17:59;9.90;;;7.30;;
2338;SDS011;1180;51.438;6.978;2022-09-29T01:20:24;11.53;;;8.63;;
2338;SDS011;1180;51.438;6.978;2022-09-29T01:31:17;11.23;;;7.83;;
2338;SDS011;1180;51.438;6.978;2022-09-29T01:37:04;8.20;;;7.40;;
2338;SDS011;1180;51.438;6.978;2022-09-29T01:39:58;10.73;;;8.27;;
2338;SDS011;1180;51.438;6.978;2022-09-29T01:42:32;10.30;;;8.20;;
2338;SDS011;1180;51.438;6.978;2022-09-29T01:47:50;8.57;;;7.77;;
2338;SDS011;1180;51.438;6.978;2022-09-29T01:50:21;8.63;;;7.67;;
2338;SDS011;1180;51.438;6.978;2022-09-29T01:52:54;12.97;;;8.90;;
2338;SDS011;1180;51.438;6.978;2022-09-29T01:55:29;11.17;;;8.27;;
2338;SDS011;1180;51.438;6.978;2022-09-29T01:58:08;11.03;;;8.70;;
2338;SDS011;1180;51.438;6.978;2022-09-29T02:00:39;11.57;;;7.93;;
2338;SDS011;1180;51.438;6.978;2022-09-29T02:03:14;8.73;;;7.83;;
2338;SDS011;1180;51.438;6.978;2022-09-29T02:08:18;9.83;;;8.70;;
2338;SDS011;1180;51.438;6.978;2022-09-29T02:11:03;10.90;;;8.90;;
2338;SDS011;1180;51.438;6.978;2022-09-29T02:13:40;8.70;;;7.03;;
2338;SDS011;1180;51.438;6.978;2022-09-29T02:16:12;9.93;;;8.23;;
2338;SDS011;1180;51.438;6.978;2022-09-29T02:18:42;10.97;;;8.07;;
2338;SDS011;1180;51.438;6.978;2022-09-29T02:21:13;8.70;;;7.93;;
2338;SDS011;1180;51.438;6.978;2022-09-29T02:23:38;8.70;;;7.83;;
2338;SDS011;1180;51.438;6.978;2022-09-29T02:26:03;9.73;;;8.03;;
2338;SDS011;1180;51.438;6.978;2022-09-29T02:28:29;9.13;;;8.23;;
2338;SDS011;1180;51.438;6.978;2022-09-29T02:30:55;8.60;;;7.57;;
2338;SDS011;1180;51.438;6.978;2022-09-29T02:33:21;9.23;;;6.87;;
2338;SDS011;1180;51.438;6.978;2022-09-29T02:39:04;9.60;;;7.20;;
2338;SDS011;1180;51.438;6.978;2022-09-29T02:44:31;7.10;;;6.40;;
2338;SDS011;1180;51.438;6.978;2022-09-29T02:50:02;11.03;;;8.30;;
2338;SDS011;1180;51.438;6.978;2022-09-29T03:00:13;9.10;;;8.17;;
2338;SDS011;1180;51.438;6.978;2022-09-29T03:02:41;8.80;;;7.20;;
2338;SDS011;1180;51.438;6.978;2022-09-29T03:05:08;9.33;;;8.30;;
2338;SDS011;1180;51.438;6.978;2022-09-29T03:07:36;10.47;;;7.50;;
2338;SDS011;1180;51.438;6.978;2022-09-29T03:10:03;9.07;;;7.93;;
2338;SDS011;1180;51.438;6.978;2022-09-29T03:12:29;9.60;;;7.97;;
2338;SDS011;1180;51.438;6.978;2022-09-29T03:14:55;7.70;;;6.73;;
2338;SDS011;1180;51.438;6.978;2022-09-29T03:17:20;8.67;;;7.50;;
2338;SDS011;1180;51.438;6.978;2022-09-29T03:19:45;7.90;;;6.73;;
2338;SDS011;1180;51.438;6.978;2022-09-29T03:22:11;9.40;;;7.87;;
2338;SDS011;1180;51.438;6.978;2022-09-29T03:24:37;9.43;;;7.60;;
2338;SDS011;1180;51.438;6.978;2022-09-29T03:27:02;9.70;;;7.90;;
2338;SDS011;1180;51.438;6.978;2022-09-29T03:29:28;9.20;;;7.57;;
2338;SDS011;1180;51.438;6.978;2022-09-29T03:31:54;7.97;;;7.17;;
2338;SDS011;1180;51.438;6.978;2022-09-29T03:34:19;10.67;;;7.90;;
2338;SDS011;1180;51.438;6.978;2022-09-29T03:36:44;10.97;;;7.83;;
2338;SDS011;1180;51.438;6.978;2022-09-29T03:39:10;16.23;;;7.40;;
2338;SDS011;1180;51.438;6.978;2022-09-29T03:41:35;10.63;;;7.27;;
2338;SDS011;1180;51.438;6.978;2022-09-29T03:44:00;7.80;;;7.10;;
2338;SDS011;1180;51.438;6.978;2022-09-29T03:46:26;9.63;;;6.60;;
2338;SDS011;1180;51.438;6.978;2022-09-29T03:48:51;7.27;;;6.57;;
2338;SDS011;1180;51.438;6.978;2022-09-29T03:51:17;8.63;;;7.73;;
2338;SDS011;1180;51.438;6.978;2022-09-29T03:53:42;7.73;;;6.97;;
2338;SDS011;1180;51.438;6.978;2022-09-29T03:56:07;7.30;;;6.60;;
2338;SDS011;1180;51.438;6.978;2022-09-29T03:58:33;7.87;;;7.00;;
2338;SDS011;1180;51.438;6.978;2022-09-29T04:00:58;8.33;;;7.60;;
2338;SDS011;1180;51.438;6.978;2022-09-29T04:03:25;8.40;;;7.50;;
2338;SDS011;1180;51.438;6.978;2022-09-29T04:05:50;9.03;;;8.23;;
2338;SDS011;1180;51.438;6.978;2022-09-29T04:08:15;8.07;;;7.27;;
2338;SDS011;1180;51.438;6.978;2022-09-29T04:10:41;8.10;;;7.07;;
2338;SDS011;1180;51.438;6.978;2022-09-29T04:13:07;8.83;;;7.60;;
2338;SDS011;1180;51.438;6.978;2022-09-29T04:15:32;7.57;;;6.80;;
2338;SDS011;1180;51.438;6.978;2022-09-29T04:17:58;8.73;;;7.80;;
2338;SDS011;1180;51.438;6.978;2022-09-29T04:20:24;9.97;;;7.07;;
2338;SDS011;1180;51.438;6.978;2022-09-29T04:22:50;9.27;;;7.97;;
2338;SDS011;1180;51.438;6.978;2022-09-29T04:25:15;8.20;;;7.33;;
2338;SDS011;1180;51.438;6.978;2022-09-29T04:27:41;9.03;;;8.10;;
2338;SDS011;1180;51.438;6.978;2022-09-29T04:30:06;7.93;;;7.13;;
2338;SDS011;1180;51.438;6.978;2022-09-29T04:32:33;11.70;;;8.40;;
2338;SDS011;1180;51.438;6.978;2022-09-29T04:34:58;10.17;;;8.67;;
2338;SDS011;1180;51.438;6.978;2022-09-29T04:37:23;9.07;;;8.27;;
2338;SDS011;1180;51.438;6.978;2022-09-29T04:39:49;9.17;;;8.27;;
2338;SDS011;1180;51.438;6.978;2022-09-29T04:42:17;12.37;;;8.90;;
2338;SDS011;1180;51.438;6.978;2022-09-29T04:44:42;10.07;;;8.83;;
2338;SDS011;1180;51.438;6.978;2022-09-29T04:47:07;11.50;;;9.07;;
2338;SDS011;1180;51.438;6.978;2022-09-29T04:49:33;9.37;;;8.33;;
2338;SDS011;1180;51.438;6.978;2022-09-29T04:51:58;10.67;;;9.57;;
2338;SDS011;1180;51.438;6.978;2022-09-29T04:54:23;11.37;;;10.27;;
2338;SDS011;1180;51.438;6.978;2022-09-29T04:56:50;10.80;;;9.70;;
2338;SDS011;1180;51.438;6.978;2022-09-29T04:59:15;10.73;;;9.73;;
2338;SDS011;1180;51.438;6.978;2022-09-29T05:01:43;9.87;;;8.90;;
2338;SDS011;1180;51.438;6.978;2022-09-29T05:04:08;10.67;;;9.37;;
2338;SDS011;1180;51.438;6.978;2022-09-29T05:06:34;11.10;;;9.53;;
2338;SDS011;1180;51.438;6.978;2022-09-29T05:09:03;10.90;;;9.50;;
2338;SDS011;1180;51.438;6.978;2022-09-29T05:11:29;10.80;;;9.07;;
2338;SDS011;1180;51.438;6.978;2022-09-29T05:13:54;10.37;;;9.13;;
2338;SDS011;1180;51.438;6.978;2022-09-29T05:16:20;9.93;;;9.03;;
2338;SDS011;1180;51.438;6.978;2022-09-29T05:18:45;10.90;;;9.57;;
2338;SDS011;1180;51.438;6.978;2022-09-29T05:21:10;10.80;;;9.23;;
2338;SDS011;1180;51.438;6.978;2022-09-29T05:23:36;11.20;;;10.20;;
2338;SDS011;1180;51.438;6.978;2022-09-29T05:26:02;11.03;;;9.57;;
2338;SDS011;1180;51.438;6.978;2022-09-29T05:28:29;10.70;;;9.33;;
2338;SDS011;1180;51.438;6.978;2022-09-29T05:30:59;10.27;;;9.27;;
2338;SDS011;1180;51.438;6.978;2022-09-29T05:33:26;11.00;;;9.90;;
2338;SDS011;1180;51.438;6.978;2022-09-29T05:35:51;14.93;;;9.07;;
2338;SDS011;1180;51.438;6.978;2022-09-29T05:38:16;11.87;;;10.57;;
2338;SDS011;1180;51.438;6.978;2022-09-29T05:40:42;11.10;;;10.00;;
2338;SDS011;1180;51.438;6.978;2022-09-29T05:43:07;10.70;;;9.70;;
2338;SDS011;1180;51.438;6.978;2022-09-29T05:45:32;13.00;;;10.67;;
2338;SDS011;1180;51.438;6.978;2022-09-29T05:47:58;12.30;;;9.93;;
2338;SDS011;1180;51.438;6.978;2022-09-29T05:50:23;15.60;;;10.37;;
2338;SDS011;1180;51.438;6.978;2022-09-29T05:52:48;28.53;;;11.20;;
2338;SDS011;1180;51.438;6.978;2022-09-29T05:55:14;12.97;;;10.70;;
2338;SDS011;1180;51.438;6.978;2022-09-29T05:57:40;12.97;;;9.93;;
2338;SDS011;1180;51.438;6.978;2022-09-29T06:00:06;10.33;;;9.23;;
2338;SDS011;1180;51.438;6.978;2022-09-29T06:02:32;12.00;;;10.80;;
2338;SDS011;1180;51.438;6.978;2022-09-29T06:04:58;11.60;;;10.40;;
2338;SDS011;1180;51.438;6.978;2022-09-29T06:07:24;14.67;;;12.30;;
2338;SDS011;1180;51.438;6.978;2022-09-29T06:09:49;10.67;;;9.20;;
2338;SDS011;1180;51.438;6.978;2022-09-29T06:12:15;13.23;;;11.47;;
2338;SDS011;1180;51.438;6.978;2022-09-29T06:14:40;11.57;;;10.37;;
2338;SDS011;1180;51.438;6.978;2022-09-29T06:17:06;11.20;;;10.10;;
2338;SDS011;1180;51.438;6.978;2022-09-29T06:19:31;11.50;;;10.40;;
2338;SDS011;1180;51.438;6.978;2022-09-29T06:21:57;10.37;;;9.37;;
2338;SDS011;1180;51.438;6.978;2022-09-29T06:24:22;11.37;;;10.20;;
2338;SDS011;1180;51.438;6.978;2022-09-29T06:26:47;11.80;;;10.60;;
2338;SDS011;1180;51.438;6.978;2022-09-29T06:29:14;11.43;;;10.30;;
2338;SDS011;1180;51.438;6.978;2022-09-29T06:31:40;11.80;;;10.27;;
2338;SDS011;1180;51.438;6.978;2022-09-29T06:34:05;11.50;;;10.40;;
2338;SDS011;1180;51.438;6.978;2022-09-29T06:36:40;11.17;;;10.00;;
2338;SDS011;1180;51.438;6.978;2022-09-29T06:39:26;14.33;;;10.83;;
2338;SDS011;1180;51.438;6.978;2022-09-29T06:41:52;12.40;;;9.97;;
2338;SDS011;1180;51.438;6.978;2022-09-29T06:44:20;13.30;;;9.50;;
2338;SDS011;1180;51.438;6.978;2022-09-29T06:46:48;12.90;;;11.00;;
2338;SDS011;1180;51.438;6.978;2022-09-29T06:49:15;13.33;;;9.97;;
2338;SDS011;1180;51.438;6.978;2022-09-29T06:51:41;11.63;;;8.87;;
2338;SDS011;1180;51.438;6.978;2022-09-29T06:54:08;11.00;;;9.90;;
2338;SDS011;1180;51.438;6.978;2022-09-29T06:56:37;10.70;;;7.97;;
2338;SDS011;1180;51.438;6.978;2022-09-29T06:59:03;8.80;;;7.90;;
2338;SDS011;1180;51.438;6.978;2022-09-29T07:01:31;11.30;;;8.87;;
2338;SDS011;1180;51.438;6.978;2022-09-29T07:03:57;9.53;;;8.63;;
2338;SDS011;1180;51.438;6.978;2022-09-29T07:06:24;9.97;;;8.27;;
2338;SDS011;1180;51.438;6.978;2022-09-29T07:08:57;8.77;;;7.90;;
2338;SDS011;1180;51.438;6.978;2022-09-29T07:11:23;14.03;;;9.00;;
2338;SDS011;1180;51.438;6.978;2022-09-29T07:13:50;11.07;;;9.00;;
2338;SDS011;1180;51.438;6.978;2022-09-29T07:16:16;13.63;;;8.50;;
2338;SDS011;1180;51.438;6.978;2022-09-29T07:18:42;11.07;;;7.43;;
2338;SDS011;1180;51.438;6.978;2022-09-29T07:21:08;11.90;;;9.00;;
2338;SDS011;1180;51.438;6.978;2022-09-29T07:23:36;8.90;;;8.00;;
2338;SDS011;1180;51.438;6.978;2022-09-29T07:26:03;9.33;;;7.90;;
2338;SDS011;1180;51.438;6.978;2022-09-29T07:28:30;9.47;;;8.20;;
2338;SDS011;1180;51.438;6.978;2022-09-29T07:30:59;9.40;;;8.00;;
2338;SDS011;1180;51.438;6.978;2022-09-29T07:33:27;11.17;;;7.30;;
2338;SDS011;1180;51.438;6.978;2022-09-29T07:35:54;11.23;;;8.70;;
2338;SDS011;1180;51.438;6.978;2022-09-29T07:38:20;9.93;;;8.30;;
2338;SDS011;1180;51.438;6.978;2022-09-29T07:40:45;12.30;;;7.20;;
2338;SDS011;1180;51.438;6.978;2022-09-29T07:43:11;10.40;;;8.70;;
2338;SDS011;1180;51.438;6.978;2022-09-29T07:45:36;8.77;;;7.87;;
2338;SDS011;1180;51.438;6.978;2022-09-29T07:48:02;9.03;;;8.20;;
2338;SDS011;1180;51.438;6.978;2022-09-29T07:50:28;9.23;;;8.13;;
2338;SDS011;1180;51.438;6.978;2022-09-29T07:52:53;8.17;;;6.90;;
2338;SDS011;1180;51.438;6.978;2022-09-29T07:55:18;8.90;;;8.07;;
2338;SDS011;1180;51.438;6.978;2022-09-29T07:57:46;8.30;;;7.17;;
2338;SDS011;1180;51.438;6.978;2022-09-29T08:00:12;7.90;;;7.20;;
2338;SDS011;1180;51.438;6.978;2022-09-29T08:02:37;7.53;;;6.30;;
2338;SDS011;1180;51.438;6.978;2022-09-29T08:05:03;9.17;;;8.10;;
2338;SDS011;1180;51.438;6.978;2022-09-29T08:07:28;7.77;;;6.97;;
2338;SDS011;1180;51.438;6.978;2022-09-29T08:09:54;6.93;;;6.23;;
2338;SDS011;1180;51.438;6.978;2022-09-29T08:12:19;8.50;;;6.47;;
2338;SDS011;1180;51.438;6.978;2022-09-29T08:14:44;7.10;;;5.93;;
2338;SDS011;1180;51.438;6.978;2022-09-29T08:17:10;7.70;;;7.00;;
2338;SDS011;1180;51.438;6.978;2022-09-29T08:19:35;10.40;;;6.43;;
2338;SDS011;1180;51.438;6.978;2022-09-29T08:22:01;7.53;;;6.30;;
2338;SDS011;1180;51.438;6.978;2022-09-29T08:24:26;9.10;;;6.90;;
2338;SDS011;1180;51.438;6.978;2022-09-29T08:26:54;8.10;;;7.40;;
2338;SDS011;1180;51.438;6.978;2022-09-29T08:29:21;9.10;;;8.00;;
2338;SDS011;1180;51.438;6.978;2022-09-29T08:31:46;6.87;;;6.07;;
2338;SDS011;1180;51.438;6.978;2022-09-29T08:34:12;8.60;;;6.70;;
2338;SDS011;1180;51.438;6.978;2022-09-29T08:36:39;7.57;;;6.77;;
2338;SDS011;1180;51.438;6.978;2022-09-29T08:39:04;6.80;;;5.97;;
2338;SDS011;1180;51.438;6.978;2022-09-29T08:44:11;7.80;;;6.27;;
2338;SDS011;1180;51.438;6.978;2022-09-29T08:46:58;6.90;;;6.17;;
2338;SDS011;1180;51.438;6.978;2022-09-29T08:49:40;6.27;;;5.63;;
2338;SDS011;1180;51.438;6.978;2022-09-29T08:52:14;10.47;;;6.07;;
2338;SDS011;1180;51.438;6.978;2022-09-29T08:54:43;6.70;;;6.07;;
2338;SDS011;1180;51.438;6.978;2022-09-29T08:57:12;7.20;;;6.43;;
2338;SDS011;1180;51.438;6.978;2022-09-29T08:59:54;6.67;;;6.03;;
2338;SDS011;1180;51.438;6.978;2022-09-29T09:02:33;9.90;;;6.67;;
2338;SDS011;1180;51.438;6.978;2022-09-29T09:05:29;5.97;;;5.30;;
2338;SDS011;1180;51.438;6.978;2022-09-29T09:08:14;6.20;;;5.60;;
2338;SDS011;1180;51.438;6.978;2022-09-29T09:13:30;8.73;;;5.43;;
2338;SDS011;1180;51.438;6.978;2022-09-29T09:21:32;6.80;;;5.80;;
2338;SDS011;1180;51.438;6.978;2022-09-29T09:24:16;5.77;;;5.20;;
2338;SDS011;1180;51.438;6.978;2022-09-29T09:26:46;5.90;;;4.30;;
2338;SDS011;1180;51.438;6.978;2022-09-29T09:29:33;9.70;;;5.00;;
2338;SDS011;1180;51.438;6.978;2022-09-29T09:35:20;3.97;;;3.60;;
2338;SDS011;1180;51.438;6.978;2022-09-29T09:37:53;6.17;;;5.10;;
2338;SDS011;1180;51.438;6.978;2022-09-29T09:40:23;5.33;;;3.40;;
2338;SDS011;1180;51.438;6.978;2022-09-29T09:42:52;6.33;;;4.10;;
2338;SDS011;1180;51.438;6.978;2022-09-29T09:45:30;4.10;;;3.60;;
2338;SDS011;1180;51.438;6.978;2022-09-29T09:48:13;4.87;;;4.37;;
2338;SDS011;1180;51.438;6.978;2022-09-29T09:50:40;5.17;;;4.17;;
2338;SDS011;1180;51.438;6.978;2022-09-29T09:53:13;4.63;;;4.33;;
2338;SDS011;1180;51.438;6.978;2022-09-29T09:55:45;5.70;;;4.13;;
2338;SDS011;1180;51.438;6.978;2022-09-29T10:01:00;4.20;;;3.77;;
2338;SDS011;1180;51.438;6.978;2022-09-29T10:03:27;4.00;;;3.70;;
2338;SDS011;1180;51.438;6.978;2022-09-29T10:05:54;7.30;;;5.07;;
2338;SDS011;1180;51.438;6.978;2022-09-29T10:08:30;4.00;;;3.70;;
2338;SDS011;1180;51.438;6.978;2022-09-29T10:11:15;4.90;;;4.23;;
2338;SDS011;1180;51.438;6.978;2022-09-29T10:13:44;4.17;;;3.77;;
2338;SDS011;1180;51.438;6.978;2022-09-29T10:16:16;4.10;;;3.60;;
2338;SDS011;1180;51.438;6.978;2022-09-29T10:18:48;8.87;;;4.07;;
2338;SDS011;1180;51.438;6.978;2022-09-29T10:23:55;6.60;;;3.60;;
2338;SDS011;1180;51.438;6.978;2022-09-29T10:31:25;3.70;;;2.83;;
2338;SDS011;1180;51.438;6.978;2022-09-29T10:33:54;3.13;;;2.83;;
2338;SDS011;1180;51.438;6.978;2022-09-29T10:36:26;2.37;;;2.20;;
2338;SDS011;1180;51.438;6.978;2022-09-29T10:38:55;3.30;;;2.50;;
2338;SDS011;1180;51.438;6.978;2022-09-29T10:41:22;4.80;;;3.70;;
2338;SDS011;1180;51.438;6.978;2022-09-29T10:43:49;3.93;;;3.33;;
2338;SDS011;1180;51.438;6.978;2022-09-29T10:51:41;3.13;;;2.83;;
2338;SDS011;1180;51.438;6.978;2022-09-29T10:54:23;2.30;;;2.10;;
2338;SDS011;1180;51.438;6.978;2022-09-29T10:56:50;2.30;;;2.10;;
2338;SDS011;1180;51.438;6.978;2022-09-29T10:59:17;4.03;;;2.27;;
2338;SDS011;1180;51.438;6.978;2022-09-29T11:01:44;5.93;;;2.50;;
2338;SDS011;1180;51.438;6.978;2022-09-29T11:04:18;4.80;;;2.53;;
2338;SDS011;1180;51.438;6.978;2022-09-29T11:06:52;2.90;;;2.00;;
2338;SDS011;1180;51.438;6.978;2022-09-29T11:17:05;3.37;;;2.60;;
2338;SDS011;1180;51.438;6.978;2022-09-29T11:19:45;2.90;;;2.60;;
2338;SDS011;1180;51.438;6.978;2022-09-29T11:28:09;2.83;;;2.37;;
2338;SDS011;1180;51.438;6.978;2022-09-29T11:36:17;2.73;;;2.43;;
2338;SDS011;1180;51.438;6.978;2022-09-29T11:39:07;2.33;;;2.13;;
2338;SDS011;1180;51.438;6.978;2022-09-29T11:49:44;3.93;;;2.30;;
2338;SDS011;1180;51.438;6.978;2022-09-29T11:52:21;4.10;;;2.50;;
2338;SDS011;1180;51.438;6.978;2022-09-29T11:55:04;2.27;;;1.73;;
2338;SDS011;1180;51.438;6.978;2022-09-29T12:00:20;3.27;;;1.90;;
2338;SDS011;1180;51.438;6.978;2022-09-29T12:17:04;1.80;;;1.70;;
2338;SDS011;1180;51.438;6.978;2022-09-29T12:19:37;2.93;;;2.30;;
2338;SDS011;1180;51.438;6.978;2022-09-29T12:22:07;2.60;;;2.40;;
2338;SDS011;1180;51.438;6.978;2022-09-29T12:24:35;1.60;;;1.50;;
2338;SDS011;1180;51.438;6.978;2022-09-29T12:27:11;2.00;;;1.80;;
2338;SDS011;1180;51.438;6.978;2022-09-29T12:29:42;1.93;;;1.73;;
2338;SDS011;1180;51.438;6.978;2022-09-29T12:32:14;2.43;;;2.13;;
2338;SDS011;1180;51.438;6.978;2022-09-29T12:34:50;2.17;;;1.97;;
2338;SDS011;1180;51.438;6.978;2022-09-29T12:37:22;1.50;;;1.40;;
2338;SDS011;1180;51.438;6.978;2022-09-29T12:48:00;1.60;;;1.50;;
2338;SDS011;1180;51.438;6.978;2022-09-29T12:56:26;5.20;;;1.80;;
2338;SDS011;1180;51.438;6.978;2022-09-29T12:59:02;2.03;;;1.80;;
2338;SDS011;1180;51.438;6.978;2022-09-29T13:01:33;2.73;;;2.53;;
2338;SDS011;1180;51.438;6.978;2022-09-29T13:23:28;4.37;;;2.90;;
2338;SDS011;1180;51.438;6.978;2022-09-29T13:28:46;3.90;;;3.50;;
2338;SDS011;1180;51.438;6.978;2022-09-29T13:31:19;3.77;;;3.37;;
2338;SDS011;1180;51.438;6.978;2022-09-29T13:33:47;3.30;;;2.83;;
2338;SDS011;1180;51.438;6.978;2022-09-29T13:36:24;4.87;;;3.47;;
2338;SDS011;1180;51.438;6.978;2022-09-29T13:38:56;5.80;;;3.10;;
2338;SDS011;1180;51.438;6.978;2022-09-29T13:48:52;1.80;;;1.70;;
2338;SDS011;1180;51.438;6.978;2022-09-29T13:51:40;2.13;;;1.93;;
2338;SDS011;1180;51.438;6.978;2022-09-29T13:59:30;3.43;;;2.07;;
2338;SDS011;1180;51.438;6.978;2022-09-29T14:01:56;3.17;;;2.20;;
2338;SDS011;1180;51.438;6.978;2022-09-29T14:04:38;3.60;;;2.73;;
2338;SDS011;1180;51.438;6.978;2022-09-29T14:07:33;2.83;;;2.13;;
2338;SDS011;1180;51.438;6.978;2022-09-29T14:13:05;2.93;;;1.70;;
2338;SDS011;1180;51.438;6.978;2022-09-29T14:15:48;5.43;;;2.40;;
2338;SDS011;1180;51.438;6.978;2022-09-29T14:18:35;1.90;;;1.60;;
2338;SDS011;1180;51.438;6.978;2022-09-29T14:21:08;4.23;;;2.37;;
2338;SDS011;1180;51.438;6.978;2022-09-29T14:29:09;4.20;;;2.10;;
2338;SDS011;1180;51.438;6.978;2022-09-29T14:31:42;3.37;;;2.10;;
2338;SDS011;1180;51.438;6.978;2022-09-29T14:34:10;2.27;;;2.07;;
2338;SDS011;1180;51.438;6.978;2022-09-29T14:36:39;3.20;;;2.47;;
2338;SDS011;1180;51.438;6.978;2022-09-29T14:39:09;3.13;;;1.47;;
2338;SDS011;1180;51.438;6.978;2022-09-29T14:41:39;3.67;;;2.50;;
2338;SDS011;1180;51.438;6.978;2022-09-29T14:44:23;4.03;;;2.30;;
2338;SDS011;1180;51.438;6.978;2022-09-29T14:47:03;3.10;;;2.80;;
2338;SDS011;1180;51.438;6.978;2022-09-29T14:58:30;5.53;;;2.60;;
2338;SDS011;1180;51.438;6.978;2022-09-29T15:01:07;3.77;;;2.03;;
2338;SDS011;1180;51.438;6.978;2022-09-29T15:06:13;4.50;;;1.53;;
2338;SDS011;1180;51.438;6.978;2022-09-29T15:08:41;3.77;;;2.27;;
2338;SDS011;1180;51.438;6.978;2022-09-29T15:11:23;2.53;;;1.47;;
2338;SDS011;1180;51.438;6.978;2022-09-29T15:13:56;1.90;;;1.70;;
2338;SDS011;1180;51.438;6.978;2022-09-29T15:16:29;2.77;;;1.80;;
2338;SDS011;1180;51.438;6.978;2022-09-29T15:24:37;4.67;;;1.83;;
2338;SDS011;1180;51.438;6.978;2022-09-29T15:27:14;3.67;;;2.60;;
2338;SDS011;1180;51.438;6.978;2022-09-29T15:29:44;3.60;;;2.07;;
2338;SDS011;1180;51.438;6.978;2022-09-29T15:32:18;3.40;;;1.40;;
2338;SDS011;1180;51.438;6.978;2022-09-29T15:34:44;2.73;;;2.03;;
2338;SDS011;1180;51.438;6.978;2022-09-29T15:37:10;3.27;;;1.67;;
2338;SDS011;1180;51.438;6.978;2022-09-29T15:39:48;2.63;;;2.13;;
2338;SDS011;1180;51.438;6.978;2022-09-29T15:42:17;1.70;;;1.60;;
2338;SDS011;1180;51.438;6.978;2022-09-29T15:44:57;3.80;;;1.90;;
2338;SDS011;1180;51.438;6.978;2022-09-29T15:47:33;2.07;;;1.80;;
2338;SDS011;1180;51.438;6.978;2022-09-29T15:50:15;2.43;;;1.60;;
2338;SDS011;1180;51.438;6.978;2022-09-29T15:52:48;2.70;;;2.30;;
2338;SDS011;1180;51.438;6.978;2022-09-29T15:55:18;2.63;;;1.87;;
2338;SDS011;1180;51.438;6.978;2022-09-29T15:57:46;3.93;;;1.90;;
2338;SDS011;1180;51.438;6.978;2022-09-29T16:02:50;2.93;;;2.20;;
2338;SDS011;1180;51.438;6.978;2022-09-29T16:05:26;3.47;;;2.00;;
2338;SDS011;1180;51.438;6.978;2022-09-29T16:10:37;3.03;;;1.70;;
2338;SDS011;1180;51.438;6.978;2022-09-29T16:13:07;3.30;;;2.07;;
2338;SDS011;1180;51.438;6.978;2022-09-29T16:15:45;4.33;;;1.93;;
2338;SDS011;1180;51.438;6.978;2022-09-29T16:18:19;3.37;;;2.03;;
2338;SDS011;1180;51.438;6.978;2022-09-29T16:20:48;2.80;;;1.73;;
2338;SDS011;1180;51.438;6.978;2022-09-29T16:23:19;4.23;;;2.10;;
2338;SDS011;1180;51.438;6.978;2022-09-29T16:26:07;2.00;;;1.77;;
2338;SDS011;1180;51.438;6.978;2022-09-29T16:28:33;3.53;;;1.83;;
2338;SDS011;1180;51.438;6.978;2022-09-29T16:31:15;3.33;;;1.93;;
2338;SDS011;1180;51.438;6.978;2022-09-29T16:33:43;2.83;;;2.10;;
2338;SDS011;1180;51.438;6.978;2022-09-29T16:36:20;3.87;;;2.20;;
2338;SDS011;1180;51.438;6.978;2022-09-29T16:38:48;3.67;;;2.53;;
2338;SDS011;1180;51.438;6.978;2022-09-29T16:41:18;4.80;;;2.30;;
2338;SDS011;1180;51.438;6.978;2022-09-29T16:46:39;5.83;;;2.30;;
2338;SDS011;1180;51.438;6.978;2022-09-29T16:49:14;5.53;;;2.27;;
2338;SDS011;1180;51.438;6.978;2022-09-29T16:52:22;4.63;;;2.23;;
2338;SDS011;1180;51.438;6.978;2022-09-29T16:57:58;3.97;;;2.47;;
2338;SDS011;1180;51.438;6.978;2022-09-29T17:00:25;4.70;;;2.80;;
2338;SDS011;1180;51.438;6.978;2022-09-29T17:02:51;3.90;;;2.87;;
2338;SDS011;1180;51.438;6.978;2022-09-29T17:05:17;3.77;;;2.50;;
2338;SDS011;1180;51.438;6.978;2022-09-29T17:07:42;2.80;;;2.50;;
2338;SDS011;1180;51.438;6.978;2022-09-29T17:10:13;3.30;;;2.43;;
2338;SDS011;1180;51.438;6.978;2022-09-29T17:12:41;5.13;;;2.83;;
2338;SDS011;1180;51.438;6.978;2022-09-29T17:15:11;5.20;;;2.90;;
2338;SDS011;1180;51.438;6.978;2022-09-29T17:17:37;3.03;;;2.50;;
2338;SDS011;1180;51.438;6.978;2022-09-29T17:20:08;3.10;;;2.40;;
2338;SDS011;1180;51.438;6.978;2022-09-29T17:22:37;3.03;;;2.63;;
2338;SDS011;1180;51.438;6.978;2022-09-29T17:25:03;5.37;;;3.13;;
2338;SDS011;1180;51.438;6.978;2022-09-29T17:27:29;4.00;;;2.50;;
2338;SDS011;1180;51.438;6.978;2022-09-29T17:30:14;7.20;;;3.70;;
2338;SDS011;1180;51.438;6.978;2022-09-29T17:32:44;4.27;;;3.57;;
2338;SDS011;1180;51.438;6.978;2022-09-29T17:35:11;5.53;;;3.23;;
2338;SDS011;1180;51.438;6.978;2022-09-29T17:37:41;4.60;;;2.80;;
2338;SDS011;1180;51.438;6.978;2022-09-29T17:42:58;5.80;;;3.57;;
2338;SDS011;1180;51.438;6.978;2022-09-29T17:45:25;3.80;;;3.50;;
2338;SDS011;1180;51.438;6.978;2022-09-29T17:47:53;4.77;;;3.57;;
2338;SDS011;1180;51.438;6.978;2022-09-29T17:50:26;6.40;;;3.63;;
2338;SDS011;1180;51.438;6.978;2022-09-29T17:52:55;7.20;;;4.10;;
2338;SDS011;1180;51.438;6.978;2022-09-29T17:55:21;9.70;;;4.53;;
2338;SDS011;1180;51.438;6.978;2022-09-29T17:57:50;8.73;;;4.67;;
2338;SDS011;1180;51.438;6.978;2022-09-29T18:00:27;6.40;;;4.00;;
2338;SDS011;1180;51.438;6.978;2022-09-29T18:02:56;6.67;;;4.60;;
2338;SDS011;1180;51.438;6.978;2022-09-29T18:05:23;9.97;;;4.90;;
2338;SDS011;1180;51.438;6.978;2022-09-29T18:07:51;8.20;;;4.87;;
2338;SDS011;1180;51.438;6.978;2022-09-29T18:10:19;6.27;;;4.27;;
2338;SDS011;1180;51.438;6.978;2022-09-29T18:12:48;5.10;;;3.70;;
2338;SDS011;1180;51.438;6.978;2022-09-29T18:15:13;4.87;;;3.83;;
2338;SDS011;1180;51.438;6.978;2022-09-29T18:17:40;5.27;;;4.10;;
2338;SDS011;1180;51.438;6.978;2022-09-29T18:20:27;8.27;;;3.33;;
2338;SDS011;1180;51.438;6.978;2022-09-29T18:22:54;4.60;;;4.13;;
2338;SDS011;1180;51.438;6.978;2022-09-29T18:25:24;3.83;;;3.20;;
2338;SDS011;1180;51.438;6.978;2022-09-29T18:27:54;5.60;;;3.70;;
2338;SDS011;1180;51.438;6.978;2022-09-29T18:32:53;3.50;;;3.10;;
2338;SDS011;1180;51.438;6.978;2022-09-29T18:38:42;3.13;;;2.83;;
2338;SDS011;1180;51.438;6.978;2022-09-29T18:41:15;7.00;;;3.53;;
2338;SDS011;1180;51.438;6.978;2022-09-29T18:43:44;5.33;;;3.83;;
2338;SDS011;1180;51.438;6.978;2022-09-29T18:46:10;5.33;;;3.57;;
2338;SDS011;1180;51.438;6.978;2022-09-29T18:48:35;4.30;;;3.40;;
2338;SDS011;1180;51.438;6.978;2022-09-29T18:51:01;3.70;;;3.40;;
2338;SDS011;1180;51.438;6.978;2022-09-29T18:53:26;7.00;;;4.60;;